sensor_id;sensor_type;location;lat;lon;timestamp;temperature;humidity
23114;DHT22;11726;50.122;8.832;2023-07-02T00:01:47;17.70;99.90
23114;DHT22;11726;50.122;8.832;2023-07-02T00:04:14;17.60;99.90
23114;DHT22;11726;50.122;8.832;2023-07-02T00:06:43;17.60;99.90
23114;DHT22;11726;50.122;8.832;2023-07-02T00:09:10;17.50;99.90
23114;DHT22;11726;50.122;8.832;2023-07-02T00:11:40;17.50;99.90
23114;DHT22;11726;50.122;8.832;2023-07-02T00:14:07;17.50;99.90
23114;DHT22;11726;50.122;8.832;2023-07-02T00:16:38;17.50;99.90
23114;DHT22;11726;50.122;8.832;2023-07-02T00:19:05;17.40;99.90
23114;DHT22;11726;50.122;8.832;2023-07-02T00:21:32;17.50;99.90
23114;DHT22;11726;50.122;8.832;2023-07-02T00:23:59;17.40;99.90
23114;DHT22;11726;50.122;8.832;2023-07-02T00:26:27;17.40;99.90
23114;DHT22;11726;50.122;8.832;2023-07-02T00:28:54;17.40;99.90
23114;DHT22;11726;50.122;8.832;2023-07-02T00:31:21;17.40;99.90
23114;DHT22;11726;50.122;8.832;2023-07-02T00:33:48;17.30;99.90
23114;DHT22;11726;50.122;8.832;2023-07-02T00:36:15;17.30;99.90
23114;DHT22;11726;50.122;8.832;2023-07-02T00:38:42;17.30;99.90
23114;DHT22;11726;50.122;8.832;2023-07-02T00:41:09;17.30;99.90
23114;DHT22;11726;50.122;8.832;2023-07-02T00:43:36;17.20;99.90
23114;DHT22;11726;50.122;8.832;2023-07-02T00:46:02;17.20;99.90
23114;DHT22;11726;50.122;8.832;2023-07-02T00:48:31;17.20;99.90
23114;DHT22;11726;50.122;8.832;2023-07-02T00:50:58;17.20;99.90
23114;DHT22;11726;50.122;8.832;2023-07-02T00:53:25;17.20;99.90
23114;DHT22;11726;50.122;8.832;2023-07-02T00:55:51;17.10;99.90
23114;DHT22;11726;50.122;8.832;2023-07-02T00:58:18;17.10;99.90
23114;DHT22;11726;50.122;8.832;2023-07-02T01:00:47;17.10;99.90
23114;DHT22;11726;50.122;8.832;2023-07-02T01:03:14;17.00;99.90
23114;DHT22;11726;50.122;8.832;2023-07-02T01:05:41;16.90;99.90
23114;DHT22;11726;50.122;8.832;2023-07-02T01:08:08;16.90;99.90
23114;DHT22;11726;50.122;8.832;2023-07-02T01:10:34;17.00;99.90
23114;DHT22;11726;50.122;8.832;2023-07-02T01:13:04;16.90;99.90
23114;DHT22;11726;50.122;8.832;2023-07-02T01:15:32;16.90;99.90
23114;DHT22;11726;50.122;8.832;2023-07-02T01:17:59;16.90;99.90
23114;DHT22;11726;50.122;8.832;2023-07-02T01:20:25;16.80;99.90
23114;DHT22;11726;50.122;8.832;2023-07-02T01:22:53;16.80;99.90
23114;DHT22;11726;50.122;8.832;2023-07-02T01:25:19;16.70;99.90
23114;DHT22;11726;50.122;8.832;2023-07-02T01:27:51;16.70;99.90
23114;DHT22;11726;50.122;8.832;2023-07-02T01:30:19;16.70;99.90
23114;DHT22;11726;50.122;8.832;2023-07-02T01:32:46;16.60;99.90
23114;DHT22;11726;50.122;8.832;2023-07-02T01:35:13;16.60;99.90
23114;DHT22;11726;50.122;8.832;2023-07-02T01:37:39;16.50;99.90
23114;DHT22;11726;50.122;8.832;2023-07-02T01:40:06;16.50;99.90
23114;DHT22;11726;50.122;8.832;2023-07-02T01:42:33;16.50;99.90
23114;DHT22;11726;50.122;8.832;2023-07-02T01:45:00;16.50;99.90
23114;DHT22;11726;50.122;8.832;2023-07-02T01:47:26;16.30;99.90
23114;DHT22;11726;50.122;8.832;2023-07-02T01:49:53;16.30;99.90
23114;DHT22;11726;50.122;8.832;2023-07-02T01:52:20;16.20;99.90
23114;DHT22;11726;50.122;8.832;2023-07-02T01:54:47;16.30;99.90
23114;DHT22;11726;50.122;8.832;2023-07-02T01:57:13;16.20;99.90
23114;DHT22;11726;50.122;8.832;2023-07-02T01:59:40;16.20;99.90
23114;DHT22;11726;50.122;8.832;2023-07-02T02:02:07;16.20;99.90
23114;DHT22;11726;50.122;8.832;2023-07-02T02:04:33;16.20;99.90
23114;DHT22;11726;50.122;8.832;2023-07-02T02:07:00;16.20;99.90
23114;DHT22;11726;50.122;8.832;2023-07-02T02:09:27;16.10;99.90
23114;DHT22;11726;50.122;8.832;2023-07-02T02:11:56;16.10;99.90
23114;DHT22;11726;50.122;8.832;2023-07-02T02:14:22;16.10;99.90
23114;DHT22;11726;50.122;8.832;2023-07-02T02:16:49;16.10;99.90
23114;DHT22;11726;50.122;8.832;2023-07-02T02:19:16;16.10;99.90
23114;DHT22;11726;50.122;8.832;2023-07-02T02:21:42;16.00;99.90
23114;DHT22;11726;50.122;8.832;2023-07-02T02:24:09;16.00;99.90
23114;DHT22;11726;50.122;8.832;2023-07-02T02:26:36;15.90;99.90
23114;DHT22;11726;50.122;8.832;2023-07-02T02:29:03;15.90;99.90
23114;DHT22;11726;50.122;8.832;2023-07-02T02:31:30;15.90;99.90
23114;DHT22;11726;50.122;8.832;2023-07-02T02:33:57;15.80;99.90
23114;DHT22;11726;50.122;8.832;2023-07-02T02:36:24;15.90;99.90
23114;DHT22;11726;50.122;8.832;2023-07-02T02:38:50;15.80;99.90
23114;DHT22;11726;50.122;8.832;2023-07-02T02:41:17;15.80;99.90
23114;DHT22;11726;50.122;8.832;2023-07-02T02:43:43;15.90;99.90
23114;DHT22;11726;50.122;8.832;2023-07-02T02:46:11;15.80;99.90
23114;DHT22;11726;50.122;8.832;2023-07-02T02:48:39;15.90;99.90
23114;DHT22;11726;50.122;8.832;2023-07-02T02:51:06;15.90;99.90
23114;DHT22;11726;50.122;8.832;2023-07-02T02:53:33;15.90;99.90
23114;DHT22;11726;50.122;8.832;2023-07-02T02:55:59;15.90;99.90
23114;DHT22;11726;50.122;8.832;2023-07-02T02:58:26;15.80;99.90
23114;DHT22;11726;50.122;8.832;2023-07-02T03:00:54;15.80;99.90
23114;DHT22;11726;50.122;8.832;2023-07-02T03:03:21;15.90;99.90
23114;DHT22;11726;50.122;8.832;2023-07-02T03:05:48;15.90;99.90
23114;DHT22;11726;50.122;8.832;2023-07-02T03:08:15;16.00;99.90
23114;DHT22;11726;50.122;8.832;2023-07-02T03:10:41;16.00;99.90
23114;DHT22;11726;50.122;8.832;2023-07-02T03:13:08;16.00;99.90
23114;DHT22;11726;50.122;8.832;2023-07-02T03:15:34;16.00;99.90
23114;DHT22;11726;50.122;8.832;2023-07-02T03:18:01;15.90;99.90
23114;DHT22;11726;50.122;8.832;2023-07-02T03:20:28;15.90;99.90
23114;DHT22;11726;50.122;8.832;2023-07-02T03:22:54;15.90;99.90
23114;DHT22;11726;50.122;8.832;2023-07-02T03:25:21;15.80;99.90
23114;DHT22;11726;50.122;8.832;2023-07-02T03:27:47;15.80;99.90
23114;DHT22;11726;50.122;8.832;2023-07-02T03:30:14;15.80;99.90
23114;DHT22;11726;50.122;8.832;2023-07-02T03:32:41;15.80;99.90
23114;DHT22;11726;50.122;8.832;2023-07-02T03:35:08;15.80;99.90
23114;DHT22;11726;50.122;8.832;2023-07-02T03:37:35;15.80;99.90
23114;DHT22;11726;50.122;8.832;2023-07-02T03:40:01;15.70;99.90
23114;DHT22;11726;50.122;8.832;2023-07-02T03:42:28;15.80;99.90
23114;DHT22;11726;50.122;8.832;2023-07-02T03:44:55;15.80;99.90
23114;DHT22;11726;50.122;8.832;2023-07-02T03:47:22;15.80;99.90
23114;DHT22;11726;50.122;8.832;2023-07-02T03:49:48;15.80;99.90
23114;DHT22;11726;50.122;8.832;2023-07-02T03:52:15;15.90;99.90
23114;DHT22;11726;50.122;8.832;2023-07-02T03:54:41;15.80;99.90
23114;DHT22;11726;50.122;8.832;2023-07-02T03:57:08;15.80;99.90
23114;DHT22;11726;50.122;8.832;2023-07-02T03:59:35;15.80;99.90
23114;DHT22;11726;50.122;8.832;2023-07-02T04:02:01;15.80;99.90
23114;DHT22;11726;50.122;8.832;2023-07-02T04:04:28;15.70;99.90
23114;DHT22;11726;50.122;8.832;2023-07-02T04:06:55;15.70;99.90
23114;DHT22;11726;50.122;8.832;2023-07-02T04:09:21;15.70;99.90
23114;DHT22;11726;50.122;8.832;2023-07-02T04:11:48;15.80;99.90
23114;DHT22;11726;50.122;8.832;2023-07-02T04:14:14;15.80;99.90
23114;DHT22;11726;50.122;8.832;2023-07-02T04:16:43;15.70;99.90
23114;DHT22;11726;50.122;8.832;2023-07-02T04:19:10;15.60;99.90
23114;DHT22;11726;50.122;8.832;2023-07-02T04:21:36;15.60;99.90
23114;DHT22;11726;50.122;8.832;2023-07-02T04:24:03;15.60;99.90
23114;DHT22;11726;50.122;8.832;2023-07-02T04:26:30;15.70;99.90
23114;DHT22;11726;50.122;8.832;2023-07-02T04:29:17;15.70;99.90
23114;DHT22;11726;50.122;8.832;2023-07-02T04:31:44;15.60;99.90
23114;DHT22;11726;50.122;8.832;2023-07-02T04:34:10;15.70;99.90
23114;DHT22;11726;50.122;8.832;2023-07-02T04:36:37;15.70;99.90
23114;DHT22;11726;50.122;8.832;2023-07-02T04:39:03;15.70;99.90
23114;DHT22;11726;50.122;8.832;2023-07-02T04:41:30;15.70;99.90
23114;DHT22;11726;50.122;8.832;2023-07-02T04:43:59;15.80;99.90
23114;DHT22;11726;50.122;8.832;2023-07-02T04:46:25;15.80;99.90
23114;DHT22;11726;50.122;8.832;2023-07-02T04:48:52;15.80;99.90
23114;DHT22;11726;50.122;8.832;2023-07-02T04:51:20;15.80;99.90
23114;DHT22;11726;50.122;8.832;2023-07-02T04:53:46;15.80;99.90
23114;DHT22;11726;50.122;8.832;2023-07-02T04:56:13;15.90;99.90
23114;DHT22;11726;50.122;8.832;2023-07-02T04:58:40;15.90;99.90
23114;DHT22;11726;50.122;8.832;2023-07-02T05:01:06;16.00;99.90
23114;DHT22;11726;50.122;8.832;2023-07-02T05:03:33;15.90;99.90
23114;DHT22;11726;50.122;8.832;2023-07-02T05:06:00;16.00;99.90
23114;DHT22;11726;50.122;8.832;2023-07-02T05:08:27;16.00;99.90
23114;DHT22;11726;50.122;8.832;2023-07-02T05:10:54;16.10;99.90
23114;DHT22;11726;50.122;8.832;2023-07-02T05:13:20;16.10;99.90
23114;DHT22;11726;50.122;8.832;2023-07-02T05:15:47;16.20;99.90
23114;DHT22;11726;50.122;8.832;2023-07-02T05:18:13;16.20;99.90
23114;DHT22;11726;50.122;8.832;2023-07-02T05:20:40;16.20;99.90
23114;DHT22;11726;50.122;8.832;2023-07-02T05:23:07;16.20;99.90
23114;DHT22;11726;50.122;8.832;2023-07-02T05:25:34;16.20;99.90
23114;DHT22;11726;50.122;8.832;2023-07-02T05:28:00;16.30;99.90
23114;DHT22;11726;50.122;8.832;2023-07-02T05:30:27;16.40;99.90
23114;DHT22;11726;50.122;8.832;2023-07-02T05:32:55;16.50;99.90
23114;DHT22;11726;50.122;8.832;2023-07-02T05:35:22;16.60;99.90
23114;DHT22;11726;50.122;8.832;2023-07-02T05:37:48;16.60;99.90
23114;DHT22;11726;50.122;8.832;2023-07-02T05:40:15;16.60;99.90
23114;DHT22;11726;50.122;8.832;2023-07-02T05:42:43;16.70;99.90
23114;DHT22;11726;50.122;8.832;2023-07-02T05:45:10;16.70;99.90
23114;DHT22;11726;50.122;8.832;2023-07-02T05:47:37;16.70;99.90
23114;DHT22;11726;50.122;8.832;2023-07-02T05:50:05;16.80;99.90
23114;DHT22;11726;50.122;8.832;2023-07-02T05:52:32;16.80;99.90
23114;DHT22;11726;50.122;8.832;2023-07-02T05:54:58;16.70;99.90
23114;DHT22;11726;50.122;8.832;2023-07-02T05:57:25;16.80;99.90
23114;DHT22;11726;50.122;8.832;2023-07-02T05:59:52;16.80;99.90
23114;DHT22;11726;50.122;8.832;2023-07-02T06:02:18;16.90;99.90
23114;DHT22;11726;50.122;8.832;2023-07-02T06:04:45;17.00;99.90
23114;DHT22;11726;50.122;8.832;2023-07-02T06:07:12;17.00;99.90
23114;DHT22;11726;50.122;8.832;2023-07-02T06:09:39;17.20;99.90
23114;DHT22;11726;50.122;8.832;2023-07-02T06:12:05;17.40;99.90
23114;DHT22;11726;50.122;8.832;2023-07-02T06:14:32;17.30;99.90
23114;DHT22;11726;50.122;8.832;2023-07-02T06:16:59;17.20;99.90
23114;DHT22;11726;50.122;8.832;2023-07-02T06:19:27;17.20;99.90
23114;DHT22;11726;50.122;8.832;2023-07-02T06:21:54;17.10;99.90
23114;DHT22;11726;50.122;8.832;2023-07-02T06:24:20;17.10;99.90
23114;DHT22;11726;50.122;8.832;2023-07-02T06:26:47;17.10;99.90
23114;DHT22;11726;50.122;8.832;2023-07-02T06:29:14;17.10;99.90
23114;DHT22;11726;50.122;8.832;2023-07-02T06:31:40;17.10;99.90
23114;DHT22;11726;50.122;8.832;2023-07-02T06:34:07;17.10;99.90
23114;DHT22;11726;50.122;8.832;2023-07-02T06:36:35;17.10;99.90
23114;DHT22;11726;50.122;8.832;2023-07-02T06:39:01;17.20;99.90
23114;DHT22;11726;50.122;8.832;2023-07-02T06:41:28;17.40;99.90
23114;DHT22;11726;50.122;8.832;2023-07-02T06:43:55;17.50;99.90
23114;DHT22;11726;50.122;8.832;2023-07-02T06:46:22;17.60;99.90
23114;DHT22;11726;50.122;8.832;2023-07-02T06:48:49;17.50;99.90
23114;DHT22;11726;50.122;8.832;2023-07-02T06:51:15;17.60;99.90
23114;DHT22;11726;50.122;8.832;2023-07-02T06:53:44;17.50;99.90
23114;DHT22;11726;50.122;8.832;2023-07-02T06:56:10;17.60;99.90
23114;DHT22;11726;50.122;8.832;2023-07-02T06:58:38;17.70;99.90
23114;DHT22;11726;50.122;8.832;2023-07-02T07:01:05;17.90;99.90
23114;DHT22;11726;50.122;8.832;2023-07-02T07:03:32;18.00;99.90
23114;DHT22;11726;50.122;8.832;2023-07-02T07:05:58;18.00;99.90
23114;DHT22;11726;50.122;8.832;2023-07-02T07:08:25;18.00;99.90
23114;DHT22;11726;50.122;8.832;2023-07-02T07:10:52;18.00;99.90
23114;DHT22;11726;50.122;8.832;2023-07-02T07:13:19;18.10;99.90
23114;DHT22;11726;50.122;8.832;2023-07-02T07:15:46;18.10;99.90
23114;DHT22;11726;50.122;8.832;2023-07-02T07:18:13;18.10;99.90
23114;DHT22;11726;50.122;8.832;2023-07-02T07:20:41;18.20;99.90
23114;DHT22;11726;50.122;8.832;2023-07-02T07:23:08;18.30;99.90
23114;DHT22;11726;50.122;8.832;2023-07-02T07:25:35;18.40;99.90
23114;DHT22;11726;50.122;8.832;2023-07-02T07:28:02;18.30;99.90
23114;DHT22;11726;50.122;8.832;2023-07-02T07:30:28;18.30;99.90
23114;DHT22;11726;50.122;8.832;2023-07-02T07:32:58;18.40;99.90
23114;DHT22;11726;50.122;8.832;2023-07-02T07:35:25;18.30;99.90
23114;DHT22;11726;50.122;8.832;2023-07-02T07:37:52;18.40;99.90
23114;DHT22;11726;50.122;8.832;2023-07-02T07:40:18;18.50;99.90
23114;DHT22;11726;50.122;8.832;2023-07-02T07:42:45;18.50;99.90
23114;DHT22;11726;50.122;8.832;2023-07-02T07:45:11;18.60;99.90
23114;DHT22;11726;50.122;8.832;2023-07-02T07:47:38;18.60;99.90
23114;DHT22;11726;50.122;8.832;2023-07-02T07:50:06;18.70;99.90
23114;DHT22;11726;50.122;8.832;2023-07-02T07:52:37;18.80;99.90
23114;DHT22;11726;50.122;8.832;2023-07-02T07:55:04;18.70;99.90
23114;DHT22;11726;50.122;8.832;2023-07-02T07:57:31;18.60;99.90
23114;DHT22;11726;50.122;8.832;2023-07-02T07:59:58;18.70;99.90
23114;DHT22;11726;50.122;8.832;2023-07-02T08:02:24;18.80;99.90
23114;DHT22;11726;50.122;8.832;2023-07-02T08:04:51;18.90;99.90
23114;DHT22;11726;50.122;8.832;2023-07-02T08:07:18;19.00;99.90
23114;DHT22;11726;50.122;8.832;2023-07-02T08:09:44;19.20;99.90
23114;DHT22;11726;50.122;8.832;2023-07-02T08:12:11;19.30;99.90
23114;DHT22;11726;50.122;8.832;2023-07-02T08:14:38;19.40;99.90
23114;DHT22;11726;50.122;8.832;2023-07-02T08:17:04;19.60;99.90
23114;DHT22;11726;50.122;8.832;2023-07-02T08:19:31;19.30;99.90
23114;DHT22;11726;50.122;8.832;2023-07-02T08:21:57;19.40;99.90
23114;DHT22;11726;50.122;8.832;2023-07-02T08:24:24;19.40;99.90
23114;DHT22;11726;50.122;8.832;2023-07-02T08:26:50;19.60;99.90
23114;DHT22;11726;50.122;8.832;2023-07-02T08:29:17;19.80;99.90
23114;DHT22;11726;50.122;8.832;2023-07-02T08:31:44;19.90;99.90
23114;DHT22;11726;50.122;8.832;2023-07-02T08:34:10;19.70;99.90
23114;DHT22;11726;50.122;8.832;2023-07-02T08:36:37;19.70;99.90
23114;DHT22;11726;50.122;8.832;2023-07-02T08:39:04;19.90;99.90
23114;DHT22;11726;50.122;8.832;2023-07-02T08:41:41;19.80;99.90
23114;DHT22;11726;50.122;8.832;2023-07-02T08:44:08;19.80;99.90
23114;DHT22;11726;50.122;8.832;2023-07-02T08:46:35;19.80;99.90
23114;DHT22;11726;50.122;8.832;2023-07-02T08:49:02;19.80;99.90
23114;DHT22;11726;50.122;8.832;2023-07-02T08:51:28;19.90;99.90
23114;DHT22;11726;50.122;8.832;2023-07-02T08:53:55;19.80;99.90
23114;DHT22;11726;50.122;8.832;2023-07-02T08:56:22;19.60;99.90
23114;DHT22;11726;50.122;8.832;2023-07-02T08:58:48;19.70;99.90
23114;DHT22;11726;50.122;8.832;2023-07-02T09:01:15;19.80;99.90
23114;DHT22;11726;50.122;8.832;2023-07-02T09:03:41;20.10;99.90
23114;DHT22;11726;50.122;8.832;2023-07-02T09:06:09;20.20;99.90
23114;DHT22;11726;50.122;8.832;2023-07-02T09:08:36;20.40;99.90
23114;DHT22;11726;50.122;8.832;2023-07-02T09:13:42;20.50;99.90
23114;DHT22;11726;50.122;8.832;2023-07-02T09:16:29;20.50;99.90
23114;DHT22;11726;50.122;8.832;2023-07-02T09:19:02;20.40;99.90
23114;DHT22;11726;50.122;8.832;2023-07-02T09:24:12;20.50;99.90
23114;DHT22;11726;50.122;8.832;2023-07-02T09:26:41;20.60;99.90
23114;DHT22;11726;50.122;8.832;2023-07-02T09:29:08;20.80;99.90
23114;DHT22;11726;50.122;8.832;2023-07-02T09:31:47;21.00;99.90
23114;DHT22;11726;50.122;8.832;2023-07-02T09:34:34;21.20;99.90
23114;DHT22;11726;50.122;8.832;2023-07-02T09:37:01;21.50;99.90
23114;DHT22;11726;50.122;8.832;2023-07-02T09:39:29;21.70;99.90
23114;DHT22;11726;50.122;8.832;2023-07-02T09:41:57;21.70;99.90
23114;DHT22;11726;50.122;8.832;2023-07-02T09:44:27;21.60;99.90
23114;DHT22;11726;50.122;8.832;2023-07-02T09:47:02;21.30;99.90
23114;DHT22;11726;50.122;8.832;2023-07-02T09:49:36;21.20;99.90
23114;DHT22;11726;50.122;8.832;2023-07-02T09:52:13;21.30;99.90
23114;DHT22;11726;50.122;8.832;2023-07-02T09:54:41;21.40;99.90
23114;DHT22;11726;50.122;8.832;2023-07-02T09:57:07;21.40;99.90
23114;DHT22;11726;50.122;8.832;2023-07-02T09:59:35;21.50;99.90
23114;DHT22;11726;50.122;8.832;2023-07-02T10:02:02;21.50;99.90
23114;DHT22;11726;50.122;8.832;2023-07-02T10:04:38;21.70;99.90
23114;DHT22;11726;50.122;8.832;2023-07-02T10:07:05;21.90;99.90
23114;DHT22;11726;50.122;8.832;2023-07-02T10:09:39;22.20;99.90
23114;DHT22;11726;50.122;8.832;2023-07-02T10:12:16;22.50;99.90
23114;DHT22;11726;50.122;8.832;2023-07-02T10:14:43;22.50;99.90
23114;DHT22;11726;50.122;8.832;2023-07-02T10:17:10;23.10;99.90
23114;DHT22;11726;50.122;8.832;2023-07-02T10:19:37;23.40;99.30
23114;DHT22;11726;50.122;8.832;2023-07-02T10:22:18;23.40;96.20
23114;DHT22;11726;50.122;8.832;2023-07-02T10:24:51;23.20;95.40
23114;DHT22;11726;50.122;8.832;2023-07-02T10:27:18;23.20;94.90
23114;DHT22;11726;50.122;8.832;2023-07-02T10:29:51;23.40;95.50
23114;DHT22;11726;50.122;8.832;2023-07-02T10:32:27;23.10;95.30
23114;DHT22;11726;50.122;8.832;2023-07-02T10:34:57;22.50;95.00
23114;DHT22;11726;50.122;8.832;2023-07-02T10:37:25;22.30;95.10
23114;DHT22;11726;50.122;8.832;2023-07-02T10:39:52;22.20;94.90
23114;DHT22;11726;50.122;8.832;2023-07-02T10:42:18;21.90;96.20
23114;DHT22;11726;50.122;8.832;2023-07-02T10:44:52;21.80;98.00
23114;DHT22;11726;50.122;8.832;2023-07-02T10:47:19;21.80;98.30
23114;DHT22;11726;50.122;8.832;2023-07-02T10:49:45;22.10;98.20
23114;DHT22;11726;50.122;8.832;2023-07-02T10:52:12;22.30;98.60
23114;DHT22;11726;50.122;8.832;2023-07-02T10:54:43;22.90;97.20
23114;DHT22;11726;50.122;8.832;2023-07-02T10:57:10;23.00;94.30
23114;DHT22;11726;50.122;8.832;2023-07-02T10:59:38;23.00;93.80
23114;DHT22;11726;50.122;8.832;2023-07-02T11:02:04;22.80;94.10
23114;DHT22;11726;50.122;8.832;2023-07-02T11:04:33;22.80;95.40
23114;DHT22;11726;50.122;8.832;2023-07-02T11:07:00;22.80;95.10
23114;DHT22;11726;50.122;8.832;2023-07-02T11:09:27;22.50;94.70
23114;DHT22;11726;50.122;8.832;2023-07-02T11:11:57;22.50;95.20
23114;DHT22;11726;50.122;8.832;2023-07-02T11:16:54;22.40;93.40
23114;DHT22;11726;50.122;8.832;2023-07-02T11:19:21;22.60;93.00
23114;DHT22;11726;50.122;8.832;2023-07-02T11:21:52;22.80;93.40
23114;DHT22;11726;50.122;8.832;2023-07-02T11:24:32;23.00;93.20
23114;DHT22;11726;50.122;8.832;2023-07-02T11:27:00;22.80;92.80
23114;DHT22;11726;50.122;8.832;2023-07-02T11:29:28;22.60;93.60
23114;DHT22;11726;50.122;8.832;2023-07-02T11:31:55;22.70;94.10
23114;DHT22;11726;50.122;8.832;2023-07-02T11:34:30;22.80;93.00
23114;DHT22;11726;50.122;8.832;2023-07-02T11:36:57;23.20;92.70
23114;DHT22;11726;50.122;8.832;2023-07-02T11:39:23;22.70;92.40
23114;DHT22;11726;50.122;8.832;2023-07-02T11:41:50;22.60;93.10
23114;DHT22;11726;50.122;8.832;2023-07-02T11:44:17;22.60;93.50
23114;DHT22;11726;50.122;8.832;2023-07-02T11:46:44;22.60;94.10
23114;DHT22;11726;50.122;8.832;2023-07-02T11:49:11;22.70;93.60
23114;DHT22;11726;50.122;8.832;2023-07-02T11:51:38;22.70;93.10
23114;DHT22;11726;50.122;8.832;2023-07-02T11:54:05;23.10;92.10
23114;DHT22;11726;50.122;8.832;2023-07-02T11:56:32;23.80;91.90
23114;DHT22;11726;50.122;8.832;2023-07-02T11:58:59;24.10;91.60
23114;DHT22;11726;50.122;8.832;2023-07-02T12:01:30;23.50;91.60
23114;DHT22;11726;50.122;8.832;2023-07-02T12:03:57;23.30;91.20
23114;DHT22;11726;50.122;8.832;2023-07-02T12:06:24;23.30;90.80
23114;DHT22;11726;50.122;8.832;2023-07-02T12:08:50;24.00;90.60
23114;DHT22;11726;50.122;8.832;2023-07-02T12:11:17;24.40;86.20
23114;DHT22;11726;50.122;8.832;2023-07-02T12:13:44;23.70;85.30
23114;DHT22;11726;50.122;8.832;2023-07-02T12:16:10;24.00;87.90
23114;DHT22;11726;50.122;8.832;2023-07-02T12:18:37;24.40;85.60
23114;DHT22;11726;50.122;8.832;2023-07-02T12:21:04;24.60;82.60
23114;DHT22;11726;50.122;8.832;2023-07-02T12:23:30;24.60;82.50
23114;DHT22;11726;50.122;8.832;2023-07-02T12:25:57;25.00;81.60
23114;DHT22;11726;50.122;8.832;2023-07-02T12:28:24;24.50;77.40
23114;DHT22;11726;50.122;8.832;2023-07-02T12:30:50;24.70;77.90
23114;DHT22;11726;50.122;8.832;2023-07-02T12:33:17;24.80;76.90
23114;DHT22;11726;50.122;8.832;2023-07-02T12:35:46;24.70;74.50
23114;DHT22;11726;50.122;8.832;2023-07-02T12:38:13;24.30;77.60
23114;DHT22;11726;50.122;8.832;2023-07-02T12:40:40;24.30;78.30
23114;DHT22;11726;50.122;8.832;2023-07-02T12:43:07;24.40;78.20
23114;DHT22;11726;50.122;8.832;2023-07-02T12:45:33;24.80;77.10
23114;DHT22;11726;50.122;8.832;2023-07-02T12:48:00;24.70;76.50
23114;DHT22;11726;50.122;8.832;2023-07-02T12:50:27;25.10;72.70
23114;DHT22;11726;50.122;8.832;2023-07-02T12:52:53;25.30;71.80
23114;DHT22;11726;50.122;8.832;2023-07-02T12:55:20;25.20;73.70
23114;DHT22;11726;50.122;8.832;2023-07-02T12:57:46;24.80;73.80
23114;DHT22;11726;50.122;8.832;2023-07-02T13:00:13;24.70;74.10
23114;DHT22;11726;50.122;8.832;2023-07-02T13:02:40;24.60;71.00
23114;DHT22;11726;50.122;8.832;2023-07-02T13:05:27;24.40;71.40
23114;DHT22;11726;50.122;8.832;2023-07-02T13:07:53;24.20;71.70
23114;DHT22;11726;50.122;8.832;2023-07-02T13:10:20;24.30;73.00
23114;DHT22;11726;50.122;8.832;2023-07-02T13:12:47;23.90;72.50
23114;DHT22;11726;50.122;8.832;2023-07-02T13:15:14;24.30;71.20
23114;DHT22;11726;50.122;8.832;2023-07-02T13:17:40;24.50;71.40
23114;DHT22;11726;50.122;8.832;2023-07-02T13:20:08;24.00;73.30
23114;DHT22;11726;50.122;8.832;2023-07-02T13:22:34;23.80;74.90
23114;DHT22;11726;50.122;8.832;2023-07-02T13:25:01;23.60;73.60
23114;DHT22;11726;50.122;8.832;2023-07-02T13:27:28;23.50;73.20
23114;DHT22;11726;50.122;8.832;2023-07-02T13:29:54;23.80;72.90
23114;DHT22;11726;50.122;8.832;2023-07-02T13:32:21;23.60;72.70
23114;DHT22;11726;50.122;8.832;2023-07-02T13:34:48;23.60;72.50
23114;DHT22;11726;50.122;8.832;2023-07-02T13:37:14;23.80;72.70
23114;DHT22;11726;50.122;8.832;2023-07-02T13:39:47;23.70;72.60
23114;DHT22;11726;50.122;8.832;2023-07-02T13:42:15;24.50;74.10
23114;DHT22;11726;50.122;8.832;2023-07-02T13:44:41;24.40;70.50
23114;DHT22;11726;50.122;8.832;2023-07-02T13:47:08;24.20;71.30
23114;DHT22;11726;50.122;8.832;2023-07-02T13:49:35;23.80;71.60
23114;DHT22;11726;50.122;8.832;2023-07-02T13:52:02;24.10;73.30
23114;DHT22;11726;50.122;8.832;2023-07-02T13:54:28;24.00;70.90
23114;DHT22;11726;50.122;8.832;2023-07-02T13:56:55;24.00;71.50
23114;DHT22;11726;50.122;8.832;2023-07-02T13:59:22;24.10;72.30
23114;DHT22;11726;50.122;8.832;2023-07-02T14:01:49;24.90;70.70
23114;DHT22;11726;50.122;8.832;2023-07-02T14:04:16;25.30;67.70
23114;DHT22;11726;50.122;8.832;2023-07-02T14:06:43;26.00;67.90
23114;DHT22;11726;50.122;8.832;2023-07-02T14:09:10;26.00;64.80
23114;DHT22;11726;50.122;8.832;2023-07-02T14:11:38;25.70;64.60
23114;DHT22;11726;50.122;8.832;2023-07-02T14:14:05;26.30;64.20
23114;DHT22;11726;50.122;8.832;2023-07-02T14:16:32;26.20;63.90
23114;DHT22;11726;50.122;8.832;2023-07-02T14:18:58;26.20;63.50
23114;DHT22;11726;50.122;8.832;2023-07-02T14:21:25;25.70;63.60
23114;DHT22;11726;50.122;8.832;2023-07-02T14:23:51;25.30;64.50
23114;DHT22;11726;50.122;8.832;2023-07-02T14:26:18;25.20;65.70
23114;DHT22;11726;50.122;8.832;2023-07-02T14:28:45;25.50;65.10
23114;DHT22;11726;50.122;8.832;2023-07-02T14:31:11;25.90;64.20
23114;DHT22;11726;50.122;8.832;2023-07-02T14:33:38;26.40;63.20
23114;DHT22;11726;50.122;8.832;2023-07-02T14:36:05;25.90;62.30
23114;DHT22;11726;50.122;8.832;2023-07-02T14:38:32;25.70;63.20
23114;DHT22;11726;50.122;8.832;2023-07-02T14:40:59;25.60;64.40
23114;DHT22;11726;50.122;8.832;2023-07-02T14:43:27;25.10;64.90
23114;DHT22;11726;50.122;8.832;2023-07-02T14:45:54;25.20;67.30
23114;DHT22;11726;50.122;8.832;2023-07-02T14:48:21;25.10;66.60
23114;DHT22;11726;50.122;8.832;2023-07-02T14:50:49;25.70;67.50
23114;DHT22;11726;50.122;8.832;2023-07-02T14:53:16;25.80;65.40
23114;DHT22;11726;50.122;8.832;2023-07-02T14:55:43;26.00;63.50
23114;DHT22;11726;50.122;8.832;2023-07-02T14:58:11;25.40;65.70
23114;DHT22;11726;50.122;8.832;2023-07-02T15:00:47;25.00;65.30
23114;DHT22;11726;50.122;8.832;2023-07-02T15:03:14;24.40;65.30
23114;DHT22;11726;50.122;8.832;2023-07-02T15:05:41;25.10;64.90
23114;DHT22;11726;50.122;8.832;2023-07-02T15:08:08;25.30;65.00
23114;DHT22;11726;50.122;8.832;2023-07-02T15:10:35;25.50;64.30
23114;DHT22;11726;50.122;8.832;2023-07-02T15:13:07;25.20;65.40
23114;DHT22;11726;50.122;8.832;2023-07-02T15:15:35;25.10;65.00
23114;DHT22;11726;50.122;8.832;2023-07-02T15:18:06;25.00;65.50
23114;DHT22;11726;50.122;8.832;2023-07-02T15:20:34;24.80;65.60
23114;DHT22;11726;50.122;8.832;2023-07-02T15:23:01;25.30;64.70
23114;DHT22;11726;50.122;8.832;2023-07-02T15:25:29;25.40;64.00
23114;DHT22;11726;50.122;8.832;2023-07-02T15:27:56;25.80;62.00
23114;DHT22;11726;50.122;8.832;2023-07-02T15:30:22;26.60;62.00
23114;DHT22;11726;50.122;8.832;2023-07-02T15:32:49;26.00;61.70
23114;DHT22;11726;50.122;8.832;2023-07-02T15:35:16;25.30;63.30
23114;DHT22;11726;50.122;8.832;2023-07-02T15:37:42;25.30;63.60
23114;DHT22;11726;50.122;8.832;2023-07-02T15:40:09;25.90;62.80